sensor_id;sensor_type;location;lat;lon;timestamp;P1;durP1;ratioP1;P2;durP2;ratioP2
24325;SDS011;12448;45.532;5.290;2023-06-14T00:01:02;2.95;;;2.40;;
24325;SDS011;12448;45.532;5.290;2023-06-14T00:03:28;6.10;;;2.53;;
24325;SDS011;12448;45.532;5.290;2023-06-14T00:05:54;4.07;;;2.30;;
24325;SDS011;12448;45.532;5.290;2023-06-14T00:08:20;4.60;;;2.45;;
24325;SDS011;12448;45.532;5.290;2023-06-14T00:10:47;5.00;;;2.55;;
24325;SDS011;12448;45.532;5.290;2023-06-14T00:13:21;5.13;;;2.85;;
24325;SDS011;12448;45.532;5.290;2023-06-14T00:15:46;5.80;;;2.60;;
24325;SDS011;12448;45.532;5.290;2023-06-14T00:18:12;5.32;;;2.38;;
24325;SDS011;12448;45.532;5.290;2023-06-14T00:20:38;5.47;;;2.33;;
24325;SDS011;12448;45.532;5.290;2023-06-14T00:23:07;4.80;;;2.60;;
24325;SDS011;12448;45.532;5.290;2023-06-14T00:25:33;7.68;;;2.53;;
24325;SDS011;12448;45.532;5.290;2023-06-14T00:27:59;5.90;;;2.42;;
24325;SDS011;12448;45.532;5.290;2023-06-14T00:30:25;6.00;;;2.88;;
24325;SDS011;12448;45.532;5.290;2023-06-14T00:32:55;3.50;;;2.42;;
24325;SDS011;12448;45.532;5.290;2023-06-14T00:35:21;4.43;;;2.40;;
24325;SDS011;12448;45.532;5.290;2023-06-14T00:37:47;5.32;;;2.53;;
24325;SDS011;12448;45.532;5.290;2023-06-14T00:40:12;6.53;;;2.25;;
24325;SDS011;12448;45.532;5.290;2023-06-14T00:42:38;3.30;;;2.42;;
24325;SDS011;12448;45.532;5.290;2023-06-14T00:45:04;5.15;;;2.38;;
24325;SDS011;12448;45.532;5.290;2023-06-14T00:47:30;3.92;;;2.60;;
24325;SDS011;12448;45.532;5.290;2023-06-14T00:49:56;5.38;;;2.22;;
24325;SDS011;12448;45.532;5.290;2023-06-14T00:52:22;3.88;;;2.65;;
24325;SDS011;12448;45.532;5.290;2023-06-14T00:54:51;4.80;;;2.20;;
24325;SDS011;12448;45.532;5.290;2023-06-14T00:57:17;4.00;;;2.38;;
24325;SDS011;12448;45.532;5.290;2023-06-14T00:59:45;6.80;;;2.50;;
24325;SDS011;12448;45.532;5.290;2023-06-14T01:02:12;6.72;;;2.75;;
24325;SDS011;12448;45.532;5.290;2023-06-14T01:04:40;2.40;;;2.20;;
24325;SDS011;12448;45.532;5.290;2023-06-14T01:16:03;8.65;;;3.20;;
24325;SDS011;12448;45.532;5.290;2023-06-14T01:18:30;4.28;;;2.42;;
24325;SDS011;12448;45.532;5.290;2023-06-14T01:20:57;6.95;;;3.00;;
24325;SDS011;12448;45.532;5.290;2023-06-14T01:23:30;6.70;;;2.70;;
24325;SDS011;12448;45.532;5.290;2023-06-14T01:25:59;6.43;;;2.63;;
24325;SDS011;12448;45.532;5.290;2023-06-14T01:28:28;5.38;;;2.30;;
24325;SDS011;12448;45.532;5.290;2023-06-14T01:31:01;5.10;;;2.55;;
24325;SDS011;12448;45.532;5.290;2023-06-14T01:33:29;5.07;;;2.42;;
24325;SDS011;12448;45.532;5.290;2023-06-14T01:36:03;7.43;;;2.67;;
24325;SDS011;12448;45.532;5.290;2023-06-14T01:38:51;6.63;;;2.85;;
24325;SDS011;12448;45.532;5.290;2023-06-14T01:41:21;4.72;;;2.33;;
24325;SDS011;12448;45.532;5.290;2023-06-14T01:43:50;6.18;;;2.63;;
24325;SDS011;12448;45.532;5.290;2023-06-14T01:46:37;6.05;;;2.50;;
24325;SDS011;12448;45.532;5.290;2023-06-14T01:49:09;7.78;;;2.50;;
24325;SDS011;12448;45.532;5.290;2023-06-14T01:51:41;5.47;;;2.60;;
24325;SDS011;12448;45.532;5.290;2023-06-14T01:54:06;4.82;;;2.70;;
24325;SDS011;12448;45.532;5.290;2023-06-14T01:56:32;5.40;;;2.58;;
24325;SDS011;12448;45.532;5.290;2023-06-14T01:59:01;7.78;;;3.25;;
24325;SDS011;12448;45.532;5.290;2023-06-14T02:01:26;8.68;;;2.85;;
24325;SDS011;12448;45.532;5.290;2023-06-14T02:03:56;4.18;;;2.47;;
24325;SDS011;12448;45.532;5.290;2023-06-14T02:06:21;8.77;;;3.00;;
24325;SDS011;12448;45.532;5.290;2023-06-14T02:08:49;6.88;;;2.97;;
24325;SDS011;12448;45.532;5.290;2023-06-14T02:18:16;3.22;;;2.38;;
24325;SDS011;12448;45.532;5.290;2023-06-14T02:21:05;3.10;;;2.08;;
24325;SDS011;12448;45.532;5.290;2023-06-14T02:23:30;4.25;;;2.63;;
24325;SDS011;12448;45.532;5.290;2023-06-14T02:25:57;5.95;;;2.35;;
24325;SDS011;12448;45.532;5.290;2023-06-14T02:28:22;3.47;;;2.35;;
24325;SDS011;12448;45.532;5.290;2023-06-14T02:30:48;5.82;;;2.45;;
24325;SDS011;12448;45.532;5.290;2023-06-14T02:33:14;4.25;;;2.13;;
24325;SDS011;12448;45.532;5.290;2023-06-14T02:35:40;6.68;;;2.53;;
24325;SDS011;12448;45.532;5.290;2023-06-14T02:38:06;6.53;;;2.83;;
24325;SDS011;12448;45.532;5.290;2023-06-14T02:40:32;3.38;;;2.50;;
24325;SDS011;12448;45.532;5.290;2023-06-14T02:42:57;5.07;;;2.58;;
24325;SDS011;12448;45.532;5.290;2023-06-14T02:45:23;2.65;;;2.33;;
24325;SDS011;12448;45.532;5.290;2023-06-14T02:47:51;5.40;;;2.40;;
24325;SDS011;12448;45.532;5.290;2023-06-14T02:50:17;3.47;;;2.13;;
24325;SDS011;12448;45.532;5.290;2023-06-14T02:52:43;3.83;;;2.22;;
24325;SDS011;12448;45.532;5.290;2023-06-14T02:55:10;4.95;;;2.70;;
24325;SDS011;12448;45.532;5.290;2023-06-14T02:57:36;7.30;;;2.67;;
24325;SDS011;12448;45.532;5.290;2023-06-14T03:00:02;7.75;;;2.20;;
24325;SDS011;12448;45.532;5.290;2023-06-14T03:02:28;6.85;;;2.35;;
24325;SDS011;12448;45.532;5.290;2023-06-14T03:04:53;4.95;;;2.10;;
24325;SDS011;12448;45.532;5.290;2023-06-14T03:07:31;6.05;;;2.38;;
24325;SDS011;12448;45.532;5.290;2023-06-14T03:09:57;4.28;;;1.98;;
24325;SDS011;12448;45.532;5.290;2023-06-14T03:12:26;7.53;;;2.10;;
24325;SDS011;12448;45.532;5.290;2023-06-14T03:14:52;3.40;;;2.05;;
24325;SDS011;12448;45.532;5.290;2023-06-14T03:17:18;7.25;;;2.08;;
24325;SDS011;12448;45.532;5.290;2023-06-14T03:19:44;2.03;;;1.90;;
24325;SDS011;12448;45.532;5.290;2023-06-14T03:22:21;5.20;;;2.00;;
24325;SDS011;12448;45.532;5.290;2023-06-14T03:24:50;3.60;;;1.83;;
24325;SDS011;12448;45.532;5.290;2023-06-14T03:27:19;3.45;;;2.10;;
24325;SDS011;12448;45.532;5.290;2023-06-14T03:29:44;5.47;;;2.10;;
24325;SDS011;12448;45.532;5.290;2023-06-14T03:32:11;7.07;;;2.65;;
24325;SDS011;12448;45.532;5.290;2023-06-14T03:34:36;4.43;;;2.30;;
24325;SDS011;12448;45.532;5.290;2023-06-14T03:37:04;2.35;;;2.10;;
24325;SDS011;12448;45.532;5.290;2023-06-14T03:39:30;4.72;;;2.05;;
24325;SDS011;12448;45.532;5.290;2023-06-14T03:41:56;3.45;;;2.10;;
24325;SDS011;12448;45.532;5.290;2023-06-14T03:44:21;8.25;;;2.47;;
24325;SDS011;12448;45.532;5.290;2023-06-14T03:46:47;5.35;;;2.30;;
24325;SDS011;12448;45.532;5.290;2023-06-14T03:49:13;2.95;;;2.38;;
24325;SDS011;12448;45.532;5.290;2023-06-14T03:51:39;4.18;;;2.05;;
24325;SDS011;12448;45.532;5.290;2023-06-14T03:54:05;5.45;;;2.35;;
24325;SDS011;12448;45.532;5.290;2023-06-14T03:56:31;6.82;;;2.45;;
24325;SDS011;12448;45.532;5.290;2023-06-14T03:58:56;4.07;;;2.30;;
24325;SDS011;12448;45.532;5.290;2023-06-14T04:01:22;6.63;;;2.42;;
24325;SDS011;12448;45.532;5.290;2023-06-14T04:03:52;8.48;;;2.10;;
24325;SDS011;12448;45.532;5.290;2023-06-14T04:06:18;5.32;;;2.28;;
24325;SDS011;12448;45.532;5.290;2023-06-14T04:08:44;8.45;;;2.30;;
24325;SDS011;12448;45.532;5.290;2023-06-14T04:11:10;3.85;;;2.35;;
24325;SDS011;12448;45.532;5.290;2023-06-14T04:13:36;6.35;;;2.50;;
24325;SDS011;12448;45.532;5.290;2023-06-14T04:16:04;3.53;;;2.13;;
24325;SDS011;12448;45.532;5.290;2023-06-14T04:18:30;5.80;;;2.30;;
24325;SDS011;12448;45.532;5.290;2023-06-14T04:20:55;4.45;;;2.33;;
24325;SDS011;12448;45.532;5.290;2023-06-14T04:23:21;4.80;;;2.40;;
24325;SDS011;12448;45.532;5.290;2023-06-14T04:25:47;5.18;;;2.30;;
24325;SDS011;12448;45.532;5.290;2023-06-14T04:28:14;3.65;;;2.42;;
24325;SDS011;12448;45.532;5.290;2023-06-14T04:30:44;5.10;;;2.50;;
24325;SDS011;12448;45.532;5.290;2023-06-14T04:33:12;3.60;;;2.22;;
24325;SDS011;12448;45.532;5.290;2023-06-14T04:35:38;4.47;;;2.67;;
24325;SDS011;12448;45.532;5.290;2023-06-14T04:38:05;3.28;;;2.30;;
24325;SDS011;12448;45.532;5.290;2023-06-14T04:40:34;5.85;;;2.88;;
24325;SDS011;12448;45.532;5.290;2023-06-14T04:43:11;5.70;;;2.80;;
24325;SDS011;12448;45.532;5.290;2023-06-14T04:45:40;6.75;;;2.88;;
24325;SDS011;12448;45.532;5.290;2023-06-14T04:48:06;3.20;;;2.72;;
24325;SDS011;12448;45.532;5.290;2023-06-14T04:50:31;4.05;;;2.63;;
24325;SDS011;12448;45.532;5.290;2023-06-14T04:53:00;7.32;;;3.00;;
24325;SDS011;12448;45.532;5.290;2023-06-14T04:55:26;5.00;;;2.63;;
24325;SDS011;12448;45.532;5.290;2023-06-14T04:57:57;5.70;;;2.80;;
24325;SDS011;12448;45.532;5.290;2023-06-14T05:00:23;5.30;;;2.67;;
24325;SDS011;12448;45.532;5.290;2023-06-14T05:05:26;3.38;;;2.50;;
24325;SDS011;12448;45.532;5.290;2023-06-14T05:07:51;7.25;;;2.65;;
24325;SDS011;12448;45.532;5.290;2023-06-14T05:10:17;4.88;;;2.28;;
24325;SDS011;12448;45.532;5.290;2023-06-14T05:12:43;2.92;;;2.38;;
24325;SDS011;12448;45.532;5.290;2023-06-14T05:15:08;4.65;;;2.33;;
24325;SDS011;12448;45.532;5.290;2023-06-14T05:17:35;4.15;;;2.67;;
24325;SDS011;12448;45.532;5.290;2023-06-14T05:20:01;2.85;;;2.58;;
24325;SDS011;12448;45.532;5.290;2023-06-14T05:22:28;3.60;;;2.92;;
24325;SDS011;12448;45.532;5.290;2023-06-14T05:24:54;6.13;;;2.55;;
24325;SDS011;12448;45.532;5.290;2023-06-14T05:27:19;2.97;;;2.60;;
24325;SDS011;12448;45.532;5.290;2023-06-14T05:29:45;4.13;;;2.83;;
24325;SDS011;12448;45.532;5.290;2023-06-14T05:32:10;2.95;;;2.53;;
24325;SDS011;12448;45.532;5.290;2023-06-14T05:34:36;3.38;;;2.50;;
24325;SDS011;12448;45.532;5.290;2023-06-14T05:37:02;3.55;;;2.67;;
24325;SDS011;12448;45.532;5.290;2023-06-14T05:39:29;5.60;;;2.67;;
24325;SDS011;12448;45.532;5.290;2023-06-14T05:41:57;3.63;;;2.42;;
24325;SDS011;12448;45.532;5.290;2023-06-14T05:44:36;4.07;;;2.70;;
24325;SDS011;12448;45.532;5.290;2023-06-14T05:47:02;3.70;;;2.50;;
24325;SDS011;12448;45.532;5.290;2023-06-14T05:49:28;4.53;;;2.58;;
24325;SDS011;12448;45.532;5.290;2023-06-14T05:51:53;6.07;;;2.63;;
24325;SDS011;12448;45.532;5.290;2023-06-14T05:54:19;3.70;;;2.30;;
24325;SDS011;12448;45.532;5.290;2023-06-14T05:56:44;7.60;;;2.88;;
24325;SDS011;12448;45.532;5.290;2023-06-14T05:59:10;4.28;;;3.00;;
24325;SDS011;12448;45.532;5.290;2023-06-14T06:01:36;3.88;;;2.78;;
24325;SDS011;12448;45.532;5.290;2023-06-14T06:04:02;5.78;;;2.70;;
24325;SDS011;12448;45.532;5.290;2023-06-14T06:06:27;5.10;;;2.80;;
24325;SDS011;12448;45.532;5.290;2023-06-14T06:08:53;3.55;;;2.75;;
24325;SDS011;12448;45.532;5.290;2023-06-14T06:11:19;3.00;;;2.70;;
24325;SDS011;12448;45.532;5.290;2023-06-14T06:13:45;4.68;;;2.38;;
24325;SDS011;12448;45.532;5.290;2023-06-14T06:16:10;4.20;;;2.47;;
24325;SDS011;12448;45.532;5.290;2023-06-14T06:18:36;4.10;;;2.33;;
24325;SDS011;12448;45.532;5.290;2023-06-14T06:21:03;3.30;;;2.45;;
24325;SDS011;12448;45.532;5.290;2023-06-14T06:23:29;2.63;;;2.42;;
24325;SDS011;12448;45.532;5.290;2023-06-14T06:25:55;3.83;;;2.53;;
24325;SDS011;12448;45.532;5.290;2023-06-14T06:28:20;4.13;;;2.40;;
24325;SDS011;12448;45.532;5.290;2023-06-14T06:30:46;7.82;;;2.65;;
24325;SDS011;12448;45.532;5.290;2023-06-14T06:33:11;2.40;;;2.20;;
24325;SDS011;12448;45.532;5.290;2023-06-14T06:35:38;4.53;;;2.60;;
24325;SDS011;12448;45.532;5.290;2023-06-14T06:38:03;2.42;;;2.20;;
24325;SDS011;12448;45.532;5.290;2023-06-14T06:40:29;4.20;;;2.38;;
24325;SDS011;12448;45.532;5.290;2023-06-14T06:42:54;4.15;;;2.42;;
24325;SDS011;12448;45.532;5.290;2023-06-14T06:45:20;2.58;;;2.38;;
24325;SDS011;12448;45.532;5.290;2023-06-14T06:47:46;3.28;;;2.55;;
24325;SDS011;12448;45.532;5.290;2023-06-14T06:50:12;4.82;;;2.30;;
24325;SDS011;12448;45.532;5.290;2023-06-14T06:52:37;3.35;;;2.47;;
24325;SDS011;12448;45.532;5.290;2023-06-14T06:55:03;3.10;;;2.42;;
24325;SDS011;12448;45.532;5.290;2023-06-14T06:57:29;3.53;;;2.42;;
24325;SDS011;12448;45.532;5.290;2023-06-14T06:59:54;3.22;;;2.40;;
24325;SDS011;12448;45.532;5.290;2023-06-14T07:02:21;3.20;;;2.08;;
24325;SDS011;12448;45.532;5.290;2023-06-14T07:04:46;4.75;;;2.15;;
24325;SDS011;12448;45.532;5.290;2023-06-14T07:09:47;3.22;;;2.25;;
24325;SDS011;12448;45.532;5.290;2023-06-14T07:12:13;4.50;;;2.70;;
24325;SDS011;12448;45.532;5.290;2023-06-14T07:14:39;2.88;;;2.20;;
24325;SDS011;12448;45.532;5.290;2023-06-14T07:17:04;3.20;;;2.40;;
24325;SDS011;12448;45.532;5.290;2023-06-14T07:19:30;5.32;;;2.42;;
24325;SDS011;12448;45.532;5.290;2023-06-14T07:21:56;2.80;;;2.40;;
24325;SDS011;12448;45.532;5.290;2023-06-14T07:24:23;2.67;;;2.42;;
24325;SDS011;12448;45.532;5.290;2023-06-14T07:26:48;2.67;;;2.47;;
24325;SDS011;12448;45.532;5.290;2023-06-14T07:29:14;2.55;;;2.20;;
24325;SDS011;12448;45.532;5.290;2023-06-14T07:31:41;3.42;;;2.30;;
24325;SDS011;12448;45.532;5.290;2023-06-14T07:34:07;2.78;;;2.20;;
24325;SDS011;12448;45.532;5.290;2023-06-14T07:36:32;5.38;;;2.25;;
24325;SDS011;12448;45.532;5.290;2023-06-14T07:38:58;2.88;;;2.25;;
24325;SDS011;12448;45.532;5.290;2023-06-14T07:41:24;4.95;;;2.20;;
24325;SDS011;12448;45.532;5.290;2023-06-14T07:43:50;4.68;;;2.50;;
24325;SDS011;12448;45.532;5.290;2023-06-14T07:46:16;5.65;;;2.08;;
24325;SDS011;12448;45.532;5.290;2023-06-14T07:48:42;3.67;;;2.33;;
24325;SDS011;12448;45.532;5.290;2023-06-14T07:51:08;4.30;;;2.80;;
24325;SDS011;12448;45.532;5.290;2023-06-14T07:53:33;5.95;;;2.70;;
24325;SDS011;12448;45.532;5.290;2023-06-14T07:55:59;3.78;;;2.45;;
24325;SDS011;12448;45.532;5.290;2023-06-14T07:58:25;5.80;;;2.97;;
24325;SDS011;12448;45.532;5.290;2023-06-14T08:00:51;3.78;;;2.60;;
24325;SDS011;12448;45.532;5.290;2023-06-14T08:03:16;4.82;;;3.20;;
24325;SDS011;12448;45.532;5.290;2023-06-14T08:05:44;4.07;;;3.20;;
24325;SDS011;12448;45.532;5.290;2023-06-14T08:08:10;4.13;;;3.40;;
24325;SDS011;12448;45.532;5.290;2023-06-14T08:10:35;5.63;;;3.60;;
24325;SDS011;12448;45.532;5.290;2023-06-14T08:13:01;4.68;;;2.90;;
24325;SDS011;12448;45.532;5.290;2023-06-14T08:15:27;6.95;;;3.28;;
24325;SDS011;12448;45.532;5.290;2023-06-14T08:17:52;6.18;;;3.45;;
24325;SDS011;12448;45.532;5.290;2023-06-14T08:20:18;4.85;;;3.13;;
24325;SDS011;12448;45.532;5.290;2023-06-14T08:22:43;5.88;;;3.88;;
24325;SDS011;12448;45.532;5.290;2023-06-14T08:25:11;7.15;;;3.40;;
24325;SDS011;12448;45.532;5.290;2023-06-14T08:27:37;4.15;;;3.55;;
24325;SDS011;12448;45.532;5.290;2023-06-14T08:30:03;5.00;;;3.40;;
24325;SDS011;12448;45.532;5.290;2023-06-14T08:32:29;5.80;;;3.35;;
24325;SDS011;12448;45.532;5.290;2023-06-14T08:34:54;4.28;;;3.28;;
24325;SDS011;12448;45.532;5.290;2023-06-14T08:37:20;4.15;;;3.33;;
24325;SDS011;12448;45.532;5.290;2023-06-14T08:39:47;4.55;;;3.70;;
24325;SDS011;12448;45.532;5.290;2023-06-14T08:42:12;4.32;;;3.20;;
24325;SDS011;12448;45.532;5.290;2023-06-14T08:44:40;7.40;;;3.88;;
24325;SDS011;12448;45.532;5.290;2023-06-14T08:47:07;4.43;;;3.30;;
24325;SDS011;12448;45.532;5.290;2023-06-14T08:49:35;9.35;;;4.03;;
24325;SDS011;12448;45.532;5.290;2023-06-14T08:52:02;8.27;;;3.97;;
24325;SDS011;12448;45.532;5.290;2023-06-14T08:54:30;7.78;;;4.03;;
24325;SDS011;12448;45.532;5.290;2023-06-14T08:56:59;5.78;;;3.72;;
24325;SDS011;12448;45.532;5.290;2023-06-14T08:59:28;4.47;;;3.55;;
24325;SDS011;12448;45.532;5.290;2023-06-14T09:01:56;4.82;;;3.80;;
24325;SDS011;12448;45.532;5.290;2023-06-14T09:04:22;4.78;;;3.88;;
24325;SDS011;12448;45.532;5.290;2023-06-14T09:06:54;7.35;;;4.20;;
24325;SDS011;12448;45.532;5.290;2023-06-14T09:09:20;6.13;;;4.20;;
24325;SDS011;12448;45.532;5.290;2023-06-14T09:11:48;7.93;;;4.30;;
24325;SDS011;12448;45.532;5.290;2023-06-14T09:14:18;7.53;;;4.72;;
24325;SDS011;12448;45.532;5.290;2023-06-14T09:16:44;6.88;;;4.15;;
24325;SDS011;12448;45.532;5.290;2023-06-14T09:19:14;7.20;;;4.18;;
24325;SDS011;12448;45.532;5.290;2023-06-14T09:21:47;6.18;;;4.53;;
24325;SDS011;12448;45.532;5.290;2023-06-14T09:24:13;8.20;;;5.20;;
24325;SDS011;12448;45.532;5.290;2023-06-14T09:26:39;6.57;;;4.57;;
24325;SDS011;12448;45.532;5.290;2023-06-14T09:29:05;7.38;;;5.03;;
24325;SDS011;12448;45.532;5.290;2023-06-14T09:31:31;8.40;;;5.95;;
24325;SDS011;12448;45.532;5.290;2023-06-14T09:33:57;8.40;;;5.03;;
24325;SDS011;12448;45.532;5.290;2023-06-14T09:36:26;9.15;;;6.22;;
24325;SDS011;12448;45.532;5.290;2023-06-14T09:44:00;6.35;;;5.30;;
24325;SDS011;12448;45.532;5.290;2023-06-14T09:46:27;6.53;;;5.30;;
24325;SDS011;12448;45.532;5.290;2023-06-14T09:48:54;6.68;;;5.60;;
24325;SDS011;12448;45.532;5.290;2023-06-14T09:51:21;9.32;;;5.53;;
24325;SDS011;12448;45.532;5.290;2023-06-14T09:53:48;8.65;;;4.97;;
24325;SDS011;12448;45.532;5.290;2023-06-14T09:56:48;6.32;;;5.55;;
24325;SDS011;12448;45.532;5.290;2023-06-14T09:59:09;7.45;;;5.72;;
24325;SDS011;12448;45.532;5.290;2023-06-14T10:01:35;7.70;;;5.63;;
24325;SDS011;12448;45.532;5.290;2023-06-14T10:04:07;6.32;;;5.45;;
24325;SDS011;12448;45.532;5.290;2023-06-14T10:06:35;9.52;;;5.88;;
24325;SDS011;12448;45.532;5.290;2023-06-14T10:09:03;8.15;;;6.28;;
24325;SDS011;12448;45.532;5.290;2023-06-14T10:11:31;8.88;;;5.13;;
24325;SDS011;12448;45.532;5.290;2023-06-14T10:13:57;9.15;;;5.18;;
24325;SDS011;12448;45.532;5.290;2023-06-14T10:16:28;9.63;;;5.10;;
24325;SDS011;12448;45.532;5.290;2023-06-14T10:19:04;8.35;;;4.93;;
24325;SDS011;12448;45.532;5.290;2023-06-14T10:21:41;7.95;;;5.30;;
24325;SDS011;12448;45.532;5.290;2023-06-14T10:24:09;6.93;;;4.68;;
24325;SDS011;12448;45.532;5.290;2023-06-14T10:26:49;6.38;;;4.50;;
24325;SDS011;12448;45.532;5.290;2023-06-14T10:29:17;7.53;;;4.70;;
24325;SDS011;12448;45.532;5.290;2023-06-14T10:31:43;8.05;;;4.32;;
24325;SDS011;12448;45.532;5.290;2023-06-14T10:34:21;4.30;;;3.75;;
24325;SDS011;12448;45.532;5.290;2023-06-14T10:37:04;8.13;;;4.43;;
24325;SDS011;12448;45.532;5.290;2023-06-14T10:39:32;7.43;;;5.28;;
24325;SDS011;12448;45.532;5.290;2023-06-14T10:42:08;7.75;;;4.88;;
24325;SDS011;12448;45.532;5.290;2023-06-14T10:44:41;6.82;;;5.00;;
24325;SDS011;12448;45.532;5.290;2023-06-14T10:47:33;7.70;;;5.55;;
24325;SDS011;12448;45.532;5.290;2023-06-14T10:52:38;8.30;;;4.77;;
24325;SDS011;12448;45.532;5.290;2023-06-14T10:57:48;9.77;;;5.00;;
24325;SDS011;12448;45.532;5.290;2023-06-14T11:00:24;7.55;;;4.68;;
24325;SDS011;12448;45.532;5.290;2023-06-14T11:08:17;8.90;;;5.00;;
24325;SDS011;12448;45.532;5.290;2023-06-14T11:10:54;6.55;;;4.90;;
24325;SDS011;12448;45.532;5.290;2023-06-14T11:13:25;9.07;;;4.82;;
24325;SDS011;12448;45.532;5.290;2023-06-14T11:15:51;8.80;;;5.40;;
24325;SDS011;12448;45.532;5.290;2023-06-14T11:18:22;8.02;;;5.95;;
24325;SDS011;12448;45.532;5.290;2023-06-14T11:20:49;7.63;;;5.53;;
24325;SDS011;12448;45.532;5.290;2023-06-14T11:23:15;7.70;;;5.50;;
24325;SDS011;12448;45.532;5.290;2023-06-14T11:25:41;8.15;;;4.95;;
24325;SDS011;12448;45.532;5.290;2023-06-14T11:28:07;9.10;;;5.32;;
24325;SDS011;12448;45.532;5.290;2023-06-14T11:30:33;6.68;;;5.00;;
24325;SDS011;12448;45.532;5.290;2023-06-14T11:32:59;6.18;;;4.40;;
24325;SDS011;12448;45.532;5.290;2023-06-14T11:35:25;6.78;;;4.78;;
24325;SDS011;12448;45.532;5.290;2023-06-14T11:37:55;10.80;;;5.07;;
24325;SDS011;12448;45.532;5.290;2023-06-14T11:40:23;7.07;;;5.00;;
24325;SDS011;12448;45.532;5.290;2023-06-14T11:42:49;7.15;;;4.57;;
24325;SDS011;12448;45.532;5.290;2023-06-14T11:45:22;5.93;;;4.97;;
24325;SDS011;12448;45.532;5.290;2023-06-14T11:47:48;6.20;;;5.10;;
24325;SDS011;12448;45.532;5.290;2023-06-14T11:50:13;11.77;;;4.35;;
24325;SDS011;12448;45.532;5.290;2023-06-14T11:52:39;10.57;;;4.80;;
24325;SDS011;12448;45.532;5.290;2023-06-14T11:55:05;10.68;;;4.15;;
24325;SDS011;12448;45.532;5.290;2023-06-14T11:57:35;8.32;;;4.15;;
24325;SDS011;12448;45.532;5.290;2023-06-14T12:00:04;9.55;;;3.70;;
24325;SDS011;12448;45.532;5.290;2023-06-14T12:02:38;10.20;;;4.35;;
24325;SDS011;12448;45.532;5.290;2023-06-14T12:05:05;7.28;;;4.20;;
24325;SDS011;12448;45.532;5.290;2023-06-14T12:10:07;5.65;;;3.80;;
24325;SDS011;12448;45.532;5.290;2023-06-14T12:12:35;5.00;;;4.13;;
24325;SDS011;12448;45.532;5.290;2023-06-14T12:15:09;5.35;;;3.55;;
24325;SDS011;12448;45.532;5.290;2023-06-14T12:17:38;6.45;;;4.03;;
24325;SDS011;12448;45.532;5.290;2023-06-14T12:20:10;5.13;;;4.22;;
24325;SDS011;12448;45.532;5.290;2023-06-14T12:22:38;6.83;;;4.00;;
24325;SDS011;12448;45.532;5.290;2023-06-14T12:25:05;7.10;;;4.82;;
24325;SDS011;12448;45.532;5.290;2023-06-14T12:27:30;5.25;;;4.03;;
24325;SDS011;12448;45.532;5.290;2023-06-14T12:30:00;11.05;;;4.07;;
24325;SDS011;12448;45.532;5.290;2023-06-14T12:32:26;8.15;;;4.18;;
24325;SDS011;12448;45.532;5.290;2023-06-14T12:34:52;5.97;;;3.85;;
24325;SDS011;12448;45.532;5.290;2023-06-14T12:37:17;8.02;;;3.45;;
24325;SDS011;12448;45.532;5.290;2023-06-14T12:39:43;5.38;;;4.00;;
24325;SDS011;12448;45.532;5.290;2023-06-14T12:42:09;7.13;;;4.47;;
24325;SDS011;12448;45.532;5.290;2023-06-14T12:44:34;5.43;;;4.30;;
24325;SDS011;12448;45.532;5.290;2023-06-14T12:47:05;5.22;;;4.15;;
24325;SDS011;12448;45.532;5.290;2023-06-14T12:49:31;5.78;;;4.45;;
24325;SDS011;12448;45.532;5.290;2023-06-14T12:51:57;5.28;;;4.15;;
24325;SDS011;12448;45.532;5.290;2023-06-14T12:54:22;5.65;;;4.25;;
24325;SDS011;12448;45.532;5.290;2023-06-14T12:56:50;5.60;;;4.18;;
24325;SDS011;12448;45.532;5.290;2023-06-14T12:59:16;7.90;;;4.22;;
24325;SDS011;12448;45.532;5.290;2023-06-14T13:01:43;8.35;;;4.60;;
24325;SDS011;12448;45.532;5.290;2023-06-14T13:04:09;5.93;;;3.97;;
24325;SDS011;12448;45.532;5.290;2023-06-14T13:06:35;6.13;;;3.95;;
24325;SDS011;12448;45.532;5.290;2023-06-14T13:09:01;7.13;;;4.47;;
24325;SDS011;12448;45.532;5.290;2023-06-14T13:11:28;4.78;;;3.65;;
24325;SDS011;12448;45.532;5.290;2023-06-14T13:13:55;7.10;;;4.15;;
24325;SDS011;12448;45.532;5.290;2023-06-14T13:16:20;7.60;;;3.60;;
24325;SDS011;12448;45.532;5.290;2023-06-14T13:18:46;6.15;;;4.00;;
24325;SDS011;12448;45.532;5.290;2023-06-14T13:21:12;6.07;;;3.78;;
24325;SDS011;12448;45.532;5.290;2023-06-14T13:23:37;5.68;;;4.18;;
24325;SDS011;12448;45.532;5.290;2023-06-14T13:26:03;10.45;;;4.07;;
24325;SDS011;12448;45.532;5.290;2023-06-14T13:28:29;5.70;;;3.75;;
24325;SDS011;12448;45.532;5.290;2023-06-14T13:30:56;5.97;;;4.28;;
24325;SDS011;12448;45.532;5.290;2023-06-14T13:33:22;8.65;;;4.53;;
24325;SDS011;12448;45.532;5.290;2023-06-14T13:35:49;6.82;;;3.90;;
24325;SDS011;12448;45.532;5.290;2023-06-14T13:38:14;5.90;;;4.43;;
24325;SDS011;12448;45.532;5.290;2023-06-14T13:40:40;6.38;;;4.28;;
24325;SDS011;12448;45.532;5.290;2023-06-14T13:43:06;7.22;;;3.80;;
24325;SDS011;12448;45.532;5.290;2023-06-14T13:45:31;7.60;;;3.92;;
24325;SDS011;12448;45.532;5.290;2023-06-14T13:47:57;7.43;;;4.00;;
24325;SDS011;12448;45.532;5.290;2023-06-14T13:50:23;8.05;;;4.25;;
24325;SDS011;12448;45.532;5.290;2023-06-14T13:52:48;11.15;;;4.22;;
24325;SDS011;12448;45.532;5.290;2023-06-14T13:55:14;6.22;;;4.25;;
24325;SDS011;12448;45.532;5.290;2023-06-14T13:57:39;5.38;;;3.97;;
24325;SDS011;12448;45.532;5.290;2023-06-14T14:00:05;6.50;;;4.30;;
24325;SDS011;12448;45.532;5.290;2023-06-14T14:02:31;5.70;;;4.20;;
24325;SDS011;12448;45.532;5.290;2023-06-14T14:04:57;7.15;;;4.18;;
24325;SDS011;12448;45.532;5.290;2023-06-14T14:07:23;7.43;;;4.53;;
24325;SDS011;12448;45.532;5.290;2023-06-14T14:09:48;4.95;;;4.30;;
24325;SDS011;12448;45.532;5.290;2023-06-14T14:12:14;6.85;;;4.32;;
24325;SDS011;12448;45.532;5.290;2023-06-14T14:14:40;6.85;;;4.75;;
24325;SDS011;12448;45.532;5.290;2023-06-14T14:17:06;8.80;;;4.93;;
24325;SDS011;12448;45.532;5.290;2023-06-14T14:19:32;9.90;;;5.60;;
24325;SDS011;12448;45.532;5.290;2023-06-14T14:21:58;7.50;;;5.25;;
24325;SDS011;12448;45.532;5.290;2023-06-14T14:24:23;7.28;;;5.50;;
24325;SDS011;12448;45.532;5.290;2023-06-14T14:26:49;14.48;;;5.80;;
24325;SDS011;12448;45.532;5.290;2023-06-14T14:29:18;9.73;;;5.07;;
24325;SDS011;12448;45.532;5.290;2023-06-14T14:31:44;14.23;;;4.72;;
24325;SDS011;12448;45.532;5.290;2023-06-14T14:34:10;5.57;;;4.45;;
24325;SDS011;12448;45.532;5.290;2023-06-14T14:36:35;10.00;;;4.43;;
24325;SDS011;12448;45.532;5.290;2023-06-14T14:39:03;6.15;;;4.40;;
24325;SDS011;12448;45.532;5.290;2023-06-14T14:41:29;6.97;;;4.45;;
24325;SDS011;12448;45.532;5.290;2023-06-14T14:43:54;6.88;;;3.65;;
24325;SDS011;12448;45.532;5.290;2023-06-14T14:46:20;6.30;;;4.15;;
24325;SDS011;12448;45.532;5.290;2023-06-14T14:48:46;7.78;;;4.40;;
24325;SDS011;12448;45.532;5.290;2023-06-14T14:51:12;10.90;;;5.03;;
24325;SDS011;12448;45.532;5.290;2023-06-14T14:53:37;6.03;;;4.65;;
24325;SDS011;12448;45.532;5.290;2023-06-14T14:56:03;6.95;;;4.30;;
24325;SDS011;12448;45.532;5.290;2023-06-14T14:58:29;7.93;;;4.22;;
24325;SDS011;12448;45.532;5.290;2023-06-14T15:00:54;4.78;;;3.60;;
24325;SDS011;12448;45.532;5.290;2023-06-14T15:03:20;6.53;;;3.30;;
24325;SDS011;12448;45.532;5.290;2023-06-14T15:05:46;5.30;;;3.22;;
24325;SDS011;12448;45.532;5.290;2023-06-14T15:08:12;4.80;;;3.50;;
24325;SDS011;12448;45.532;5.290;2023-06-14T15:10:38;4.40;;;3.53;;
24325;SDS011;12448;45.532;5.290;2023-06-14T15:13:08;6.07;;;2.90;;
24325;SDS011;12448;45.532;5.290;2023-06-14T15:15:34;6.85;;;3.45;;
24325;SDS011;12448;45.532;5.290;2023-06-14T15:18:00;6.28;;;3.50;;
24325;SDS011;12448;45.532;5.290;2023-06-14T15:20:25;4.75;;;3.38;;
24325;SDS011;12448;45.532;5.290;2023-06-14T15:22:51;7.10;;;3.42;;
24325;SDS011;12448;45.532;5.290;2023-06-14T15:25:17;3.25;;;2.70;;
24325;SDS011;12448;45.532;5.290;2023-06-14T15:27:44;5.53;;;3.00;;